METAR Data
IDs: Format: Raw Decoded Include TAF

Data at: 0840 UTC 13 Aug 2022

SUMU 130800Z 01005KT 9999 FEW033 BKN100 13/13 Q1016 TEMPO RA